createdAt,value
2017-09-26T00:00:13.776Z,14.30
2017-09-26T00:02:41.311Z,17.40
2017-09-26T00:05:08.855Z,16.10
2017-09-26T00:07:36.379Z,20.13
2017-09-26T00:10:03.927Z,20.65
2017-09-26T00:12:31.451Z,19.48
2017-09-26T00:14:58.995Z,25.00
2017-09-26T00:17:26.516Z,19.00
2017-09-26T00:19:54.035Z,18.23
2017-09-26T00:22:21.584Z,17.80
2017-09-26T00:24:49.123Z,18.10
2017-09-26T00:27:17.068Z,16.98
2017-09-26T00:29:44.592Z,15.93
2017-09-26T00:32:12.137Z,18.12
2017-09-26T00:34:39.668Z,18.73
2017-09-26T00:37:07.604Z,19.47
2017-09-26T00:39:35.134Z,20.20
2017-09-26T00:42:02.688Z,21.67
2017-09-26T00:44:30.211Z,20.17
2017-09-26T00:46:57.743Z,21.17
2017-09-26T00:49:25.667Z,22.50
2017-09-26T00:51:53.187Z,22.97
2017-09-26T00:54:20.736Z,23.80
2017-09-26T00:56:48.261Z,22.27
2017-09-26T00:59:15.796Z,23.87
2017-09-26T01:01:43.323Z,21.07
2017-09-26T01:04:11.343Z,24.10
2017-09-26T01:09:48.127Z,25.70
2017-09-26T01:12:16.056Z,21.57
2017-09-26T01:14:43.613Z,23.57
2017-09-26T01:17:11.136Z,27.73
2017-09-26T01:19:39.300Z,23.40
2017-09-26T01:22:06.832Z,27.60
2017-09-26T01:24:34.349Z,23.33
2017-09-26T01:27:02.284Z,23.20
2017-09-26T01:29:29.808Z,26.37
2017-09-26T01:31:57.358Z,22.90
2017-09-26T01:34:24.876Z,23.13
2017-09-26T01:36:52.416Z,24.80
2017-09-26T01:39:19.938Z,24.87
2017-09-26T01:41:47.458Z,22.60
2017-09-26T01:44:15.401Z,26.53
2017-09-26T01:46:42.931Z,23.77
2017-09-26T01:49:10.872Z,25.90
2017-09-26T01:51:38.392Z,29.67
2017-09-26T01:54:05.928Z,26.57
2017-09-26T01:59:38.300Z,27.87
2017-09-26T02:02:05.819Z,27.70
2017-09-26T02:04:33.385Z,29.77
2017-09-26T02:07:00.908Z,24.87
2017-09-26T02:09:28.444Z,24.43
2017-09-26T02:11:55.975Z,26.10
2017-09-26T02:14:23.493Z,24.37
2017-09-26T02:16:51.028Z,24.40
2017-09-26T02:19:18.552Z,22.60
2017-09-26T02:21:46.084Z,29.73
2017-09-26T02:24:13.603Z,28.67
2017-09-26T02:26:41.537Z,28.57
2017-09-26T02:29:10.106Z,23.30
2017-09-26T02:31:38.036Z,28.53
2017-09-26T02:34:05.567Z,25.53
2017-09-26T02:36:33.123Z,27.63
2017-09-26T02:39:00.640Z,25.40
2017-09-26T02:41:28.556Z,27.73
2017-09-26T02:43:56.094Z,25.80
2017-09-26T02:46:23.610Z,25.33
2017-09-26T02:48:51.146Z,27.60
2017-09-26T02:51:18.667Z,27.77
2017-09-26T02:53:46.595Z,23.40
2017-09-26T02:56:14.116Z,23.00
2017-09-26T02:58:41.667Z,27.23
2017-09-26T03:01:10.235Z,26.70
2017-09-26T03:03:38.177Z,27.00
2017-09-26T03:06:05.716Z,25.40
2017-09-26T03:08:33.623Z,27.50
2017-09-26T03:11:01.556Z,27.10
2017-09-26T03:13:29.070Z,29.10
2017-09-26T03:15:56.607Z,28.83
2017-09-26T03:18:24.123Z,29.03
2017-09-26T03:20:51.682Z,29.03
2017-09-26T03:23:19.195Z,24.77
2017-09-26T03:25:46.713Z,27.47
2017-09-26T03:28:14.252Z,29.10
2017-09-26T03:30:41.780Z,25.13
2017-09-26T03:33:10.619Z,29.53
2017-09-26T03:35:38.139Z,26.27
2017-09-26T03:38:05.668Z,27.13
2017-09-26T03:40:33.548Z,29.53
2017-09-26T03:43:01.067Z,28.17
2017-09-26T03:45:29.004Z,29.40
2017-09-26T03:47:56.525Z,21.93
2017-09-26T03:50:24.063Z,27.33
2017-09-26T03:52:51.587Z,24.90
2017-09-26T03:55:19.153Z,26.37
2017-09-26T03:57:46.674Z,23.90
2017-09-26T04:00:14.217Z,26.57
2017-09-26T04:02:41.757Z,28.13
2017-09-26T04:05:09.728Z,26.50
2017-09-26T04:07:37.684Z,28.80
2017-09-26T04:10:05.200Z,25.90
2017-09-26T04:12:32.753Z,26.17
2017-09-26T04:15:00.274Z,25.47
2017-09-26T04:17:27.791Z,25.80
2017-09-26T04:19:55.331Z,26.27
2017-09-26T04:22:22.847Z,25.67
2017-09-26T04:24:50.383Z,28.00
2017-09-26T04:27:17.904Z,23.43
2017-09-26T04:29:45.439Z,26.87
2017-09-26T04:32:12.963Z,27.77
2017-09-26T04:34:41.341Z,26.00
2017-09-26T04:37:08.867Z,23.43
2017-09-26T04:39:36.431Z,26.57
2017-09-26T04:42:03.941Z,26.83
2017-09-26T04:44:31.468Z,28.73
2017-09-26T04:46:59.004Z,26.97
2017-09-26T04:49:26.515Z,29.10
2017-09-26T04:51:54.046Z,26.57
2017-09-26T04:54:21.571Z,27.37
2017-09-26T04:56:49.108Z,28.23
2017-09-26T04:59:16.633Z,26.97
2017-09-26T05:01:44.188Z,30.20
2017-09-26T05:04:11.708Z,24.77
2017-09-26T05:06:39.653Z,27.33
2017-09-26T05:09:07.186Z,27.53
2017-09-26T05:11:34.712Z,25.20
2017-09-26T05:14:02.247Z,27.03
2017-09-26T05:16:29.771Z,29.10
2017-09-26T05:18:57.339Z,26.30
2017-09-26T05:21:25.252Z,27.40
2017-09-26T05:23:53.023Z,27.30
2017-09-26T05:26:20.559Z,25.90
2017-09-26T05:28:48.081Z,31.50
2017-09-26T05:31:15.747Z,27.00
2017-09-26T05:33:43.281Z,29.23
2017-09-26T05:36:10.939Z,25.50
2017-09-26T05:38:40.047Z,24.00
2017-09-26T05:41:07.740Z,28.27
2017-09-26T05:43:35.303Z,28.10
2017-09-26T05:46:02.853Z,28.70
2017-09-26T05:48:30.393Z,26.47
2017-09-26T05:50:58.347Z,26.40
2017-09-26T05:53:25.879Z,28.30
2017-09-26T05:55:53.791Z,24.60
2017-09-26T05:58:21.342Z,32.90
2017-09-26T06:00:48.861Z,27.00
2017-09-26T06:03:16.391Z,32.40
2017-09-26T06:05:43.922Z,29.27
2017-09-26T06:08:11.439Z,25.43
2017-09-26T06:10:40.126Z,25.70
2017-09-26T06:13:07.640Z,25.20
2017-09-26T06:15:35.303Z,31.43
2017-09-26T06:18:02.834Z,27.10
2017-09-26T06:20:30.351Z,27.17
2017-09-26T06:22:57.879Z,26.70
2017-09-26T06:25:25.397Z,26.87
2017-09-26T06:27:52.931Z,29.07
2017-09-26T06:30:20.449Z,26.07
2017-09-26T06:32:47.985Z,25.57
2017-09-26T06:35:15.505Z,26.50
2017-09-26T06:37:43.043Z,31.00
2017-09-26T06:40:12.474Z,29.13
2017-09-26T06:42:40.551Z,26.13
2017-09-26T06:45:08.086Z,29.60
2017-09-26T06:47:35.624Z,26.90
2017-09-26T06:50:03.591Z,25.63
2017-09-26T06:52:31.126Z,27.13
2017-09-26T06:54:58.649Z,25.67
2017-09-26T06:57:26.597Z,26.97
2017-09-26T06:59:54.530Z,26.67
2017-09-26T07:02:22.063Z,27.93
2017-09-26T07:04:49.592Z,23.43
2017-09-26T07:07:17.107Z,26.10
2017-09-26T07:09:44.642Z,29.80
2017-09-26T07:12:12.160Z,25.70
2017-09-26T07:14:39.708Z,25.67
2017-09-26T07:17:07.220Z,27.37
2017-09-26T07:19:34.752Z,26.17
2017-09-26T07:22:02.698Z,27.20
2017-09-26T07:24:30.260Z,24.60
2017-09-26T07:26:57.785Z,24.87
2017-09-26T07:29:25.307Z,24.73
2017-09-26T07:31:53.251Z,25.70
2017-09-26T07:34:20.772Z,29.23
2017-09-26T07:36:48.705Z,21.10
2017-09-26T07:39:16.228Z,22.67
2017-09-26T07:41:43.770Z,23.83
2017-09-26T07:44:11.292Z,25.03
2017-09-26T07:46:38.837Z,24.10
2017-09-26T07:49:06.364Z,26.77
2017-09-26T07:51:33.895Z,25.00
2017-09-26T07:54:01.815Z,25.50
2017-09-26T07:56:29.350Z,23.70
2017-09-26T07:58:56.934Z,26.97
2017-09-26T08:01:24.444Z,23.20
2017-09-26T08:03:52.223Z,23.27
2017-09-26T08:06:20.567Z,24.00
2017-09-26T08:08:48.367Z,23.10
2017-09-26T08:11:15.879Z,22.40
2017-09-26T08:13:43.442Z,21.53
2017-09-26T08:16:10.964Z,23.47
2017-09-26T08:18:39.856Z,29.07
2017-09-26T08:21:07.408Z,19.10
2017-09-26T08:23:34.924Z,20.97
2017-09-26T08:26:02.456Z,21.60
2017-09-26T08:28:29.976Z,23.10
2017-09-26T08:30:57.512Z,22.10
2017-09-26T08:33:25.432Z,20.50
2017-09-26T08:35:52.968Z,23.00
2017-09-26T08:38:20.487Z,25.97
2017-09-26T08:40:48.416Z,22.03
2017-09-26T08:43:15.940Z,22.37
2017-09-26T08:45:43.471Z,20.30
2017-09-26T08:48:11.393Z,16.73
2017-09-26T08:50:39.636Z,18.57
2017-09-26T08:53:07.160Z,19.03
2017-09-26T08:55:34.701Z,19.47
2017-09-26T08:58:02.223Z,15.70
2017-09-26T09:00:29.743Z,15.80
2017-09-26T09:02:57.271Z,14.30
2017-09-26T09:05:24.792Z,14.80
2017-09-26T09:07:52.339Z,15.00
2017-09-26T09:10:19.854Z,14.67
2017-09-26T09:12:47.381Z,14.50
2017-09-26T09:15:15.284Z,14.70
2017-09-26T09:17:43.214Z,16.47
2017-09-26T09:20:11.216Z,13.50
2017-09-26T09:22:38.787Z,13.77
2017-09-26T09:25:06.299Z,12.90
2017-09-26T09:27:33.816Z,14.00
2017-09-26T09:30:01.732Z,14.53
2017-09-26T09:32:29.248Z,14.37
2017-09-26T09:34:56.780Z,13.47
2017-09-26T09:37:24.697Z,15.47
2017-09-26T09:39:52.234Z,13.70
2017-09-26T09:42:19.755Z,14.00
2017-09-26T09:44:47.280Z,14.20
2017-09-26T09:47:14.787Z,12.00
2017-09-26T09:49:42.359Z,13.17
2017-09-26T09:52:11.364Z,12.90
2017-09-26T09:54:40.790Z,9.60
2017-09-26T09:57:09.524Z,10.03
2017-09-26T09:59:37.039Z,8.83
2017-09-26T10:02:04.605Z,10.90
2017-09-26T10:04:32.123Z,10.40
2017-09-26T10:06:59.653Z,9.03
2017-09-26T10:09:27.556Z,9.70
2017-09-26T10:11:55.084Z,11.07
2017-09-26T10:14:22.595Z,9.67
2017-09-26T10:16:50.127Z,9.80
2017-09-26T10:19:17.633Z,9.53
2017-09-26T10:21:45.166Z,10.20
2017-09-26T10:24:13.072Z,10.20
2017-09-26T10:26:41.208Z,8.60
2017-09-26T10:29:09.572Z,10.03
2017-09-26T10:31:37.084Z,9.73
2017-09-26T10:34:04.611Z,11.37
2017-09-26T10:36:32.127Z,24.10
2017-09-26T10:38:59.651Z,11.53
2017-09-26T10:41:27.160Z,10.37
2017-09-26T10:43:54.684Z,10.27
2017-09-26T10:46:22.587Z,11.23
2017-09-26T10:48:50.143Z,9.37
2017-09-26T10:51:17.649Z,11.57
2017-09-26T10:53:45.176Z,11.50
2017-09-26T10:56:12.712Z,10.70
2017-09-26T10:58:41.635Z,11.10
2017-09-26T11:01:10.233Z,11.90
2017-09-26T11:03:37.744Z,27.33
2017-09-26T11:06:05.279Z,12.80
2017-09-26T11:08:32.800Z,14.13
2017-09-26T11:11:00.719Z,9.90
2017-09-26T11:13:28.228Z,11.00
2017-09-26T11:15:55.752Z,9.93
2017-09-26T11:18:23.668Z,9.50
2017-09-26T11:20:51.200Z,10.20
2017-09-26T11:23:18.711Z,9.80
2017-09-26T11:25:46.259Z,9.00
2017-09-26T11:28:13.771Z,9.83
2017-09-26T11:30:41.284Z,10.00
2017-09-26T11:33:08.812Z,10.63
2017-09-26T11:35:36.890Z,9.53
2017-09-26T11:38:04.414Z,8.17
2017-09-26T11:40:31.936Z,9.37
2017-09-26T11:42:59.467Z,9.87
2017-09-26T11:45:26.992Z,12.07
2017-09-26T11:47:54.509Z,10.33
2017-09-26T11:50:22.426Z,7.97
2017-09-26T11:52:49.935Z,8.30
2017-09-26T11:55:17.459Z,9.70
2017-09-26T11:57:44.962Z,9.47
2017-09-26T12:00:12.881Z,8.97
2017-09-26T12:02:41.676Z,8.50
2017-09-26T12:05:09.688Z,8.47
2017-09-26T12:07:37.196Z,8.93
2017-09-26T12:10:04.719Z,7.53
2017-09-26T12:12:32.229Z,8.53
2017-09-26T12:15:00.147Z,9.20
2017-09-26T12:17:27.659Z,19.03
2017-09-26T12:19:55.207Z,7.70
2017-09-26T12:22:22.723Z,7.77
2017-09-26T12:24:50.239Z,9.50
2017-09-26T12:27:17.772Z,8.00
2017-09-26T12:29:45.295Z,8.30
2017-09-26T12:32:12.828Z,9.13
2017-09-26T12:34:41.636Z,9.13
2017-09-26T12:37:10.400Z,8.30
2017-09-26T12:39:37.907Z,6.27
2017-09-26T12:42:05.431Z,7.93
2017-09-26T12:44:33.363Z,7.10
2017-09-26T12:47:00.903Z,8.10
2017-09-26T12:49:28.811Z,10.60
2017-09-26T12:51:56.330Z,11.53
2017-09-26T12:54:23.855Z,8.30
2017-09-26T12:56:51.366Z,8.23
2017-09-26T12:59:18.892Z,8.07
2017-09-26T13:01:46.409Z,8.23
2017-09-26T13:04:14.336Z,9.03
2017-09-26T13:06:41.848Z,13.33
2017-09-26T13:09:10.311Z,9.10
2017-09-26T13:11:38.207Z,9.73
2017-09-26T13:14:05.720Z,10.00
2017-09-26T13:16:33.277Z,10.10
2017-09-26T13:19:00.788Z,10.97
2017-09-26T13:21:28.753Z,9.00
2017-09-26T13:23:56.267Z,10.23
2017-09-26T13:26:23.803Z,10.27
2017-09-26T13:28:51.316Z,10.73
2017-09-26T13:31:19.240Z,9.57
2017-09-26T13:33:47.152Z,11.97
2017-09-26T13:36:14.673Z,9.63
2017-09-26T13:38:42.194Z,9.50
2017-09-26T13:41:11.283Z,11.63
2017-09-26T13:43:38.814Z,9.80
2017-09-26T13:46:06.715Z,8.20
2017-09-26T13:48:34.640Z,12.67
2017-09-26T13:51:02.160Z,11.30
2017-09-26T13:53:29.712Z,9.40
2017-09-26T13:55:57.223Z,9.93
2017-09-26T13:58:24.742Z,11.30
2017-09-26T14:00:52.667Z,10.23
2017-09-26T14:03:20.292Z,8.77
2017-09-26T14:05:47.819Z,8.97
2017-09-26T14:08:15.340Z,7.57
2017-09-26T14:10:42.892Z,9.13
2017-09-26T14:13:11.599Z,8.50
2017-09-26T14:15:40.591Z,7.50
2017-09-26T14:18:08.150Z,9.50
2017-09-26T14:20:35.660Z,6.77
2017-09-26T14:23:03.192Z,8.80
2017-09-26T14:25:30.700Z,7.57
2017-09-26T14:27:58.231Z,10.80
2017-09-26T14:30:26.136Z,12.93
2017-09-26T14:32:53.712Z,8.13
2017-09-26T14:35:21.620Z,9.63
2017-09-26T14:37:49.538Z,11.03
2017-09-26T14:40:17.063Z,8.87
2017-09-26T14:42:44.583Z,9.43
2017-09-26T14:45:12.126Z,8.83
2017-09-26T14:47:40.687Z,8.93
2017-09-26T14:50:08.216Z,8.77
2017-09-26T14:52:36.124Z,10.40
2017-09-26T14:55:03.683Z,10.33
2017-09-26T14:57:31.587Z,13.03
2017-09-26T14:59:59.131Z,11.37
2017-09-26T15:02:26.662Z,8.77
2017-09-26T15:04:54.186Z,10.53
2017-09-26T15:07:21.715Z,9.40
2017-09-26T15:09:49.232Z,11.23
2017-09-26T15:12:16.767Z,11.50
2017-09-26T15:14:44.298Z,10.97
2017-09-26T15:17:11.824Z,11.17
2017-09-26T15:19:40.587Z,9.80
2017-09-26T15:22:10.032Z,11.70
2017-09-26T15:24:37.644Z,13.60
2017-09-26T15:27:05.212Z,10.10
2017-09-26T15:29:33.152Z,7.20
2017-09-26T15:32:00.660Z,7.43
2017-09-26T15:34:28.193Z,8.10
2017-09-26T15:36:55.712Z,7.97
2017-09-26T15:39:23.236Z,8.53
2017-09-26T15:41:50.748Z,6.23
2017-09-26T15:44:18.268Z,9.23
2017-09-26T15:46:45.775Z,9.53
2017-09-26T15:49:13.343Z,7.03
2017-09-26T15:51:41.020Z,8.33
2017-09-26T15:54:09.300Z,6.03
2017-09-26T15:56:36.839Z,5.93
2017-09-26T15:59:04.367Z,6.00
2017-09-26T16:01:31.896Z,7.43
2017-09-26T16:03:59.411Z,7.27
2017-09-26T16:06:26.936Z,7.17
2017-09-26T16:08:54.455Z,6.27
2017-09-26T16:11:22.223Z,5.93
2017-09-26T16:13:49.731Z,7.40
2017-09-26T16:16:17.258Z,6.30
2017-09-26T16:18:45.179Z,6.90
2017-09-26T16:21:12.691Z,5.40
2017-09-26T16:23:41.499Z,5.63
2017-09-26T16:26:10.178Z,7.20
2017-09-26T16:28:37.711Z,9.07
2017-09-26T16:31:05.214Z,7.10
2017-09-26T16:33:32.740Z,6.20
2017-09-26T16:36:00.246Z,6.77
2017-09-26T16:38:28.175Z,6.63
2017-09-26T16:40:55.700Z,8.43
2017-09-26T16:43:23.271Z,8.10
2017-09-26T16:45:50.801Z,9.57
2017-09-26T16:48:18.307Z,8.27
2017-09-26T16:50:45.832Z,7.10
2017-09-26T16:53:13.344Z,6.00
2017-09-26T16:55:40.932Z,6.23
2017-09-26T16:58:09.656Z,7.20
2017-09-26T17:00:37.223Z,7.67
2017-09-26T17:03:04.775Z,7.37
2017-09-26T17:05:32.700Z,7.37
2017-09-26T17:08:00.203Z,7.77
2017-09-26T17:10:27.717Z,7.67
2017-09-26T17:12:55.243Z,5.97
2017-09-26T17:15:22.754Z,6.80
2017-09-26T17:17:50.300Z,9.13
2017-09-26T17:20:17.807Z,9.10
2017-09-26T17:22:45.379Z,8.20
2017-09-26T17:25:12.896Z,8.03
2017-09-26T17:27:41.519Z,11.17
2017-09-26T17:30:10.168Z,9.10
2017-09-26T17:32:37.685Z,7.73
2017-09-26T17:35:05.210Z,7.60
2017-09-26T17:37:32.719Z,7.80
2017-09-26T17:40:00.401Z,4.97
2017-09-26T17:42:27.917Z,8.23
2017-09-26T17:44:55.464Z,5.40
2017-09-26T17:47:22.970Z,5.30
2017-09-26T17:49:50.873Z,6.30
2017-09-26T17:52:18.815Z,6.47
2017-09-26T17:54:46.369Z,9.03
2017-09-26T17:57:13.892Z,6.93
2017-09-26T17:59:42.086Z,5.37
2017-09-26T18:02:10.585Z,6.73
2017-09-26T18:04:38.095Z,6.43
2017-09-26T18:07:05.624Z,8.53
2017-09-26T18:09:33.560Z,14.13
2017-09-26T18:12:01.078Z,7.83
2017-09-26T18:14:28.608Z,8.47
2017-09-26T18:16:56.123Z,21.30
2017-09-26T18:19:23.655Z,11.80
2017-09-26T18:21:51.582Z,18.60
2017-09-26T18:24:19.120Z,18.63
2017-09-26T18:26:46.659Z,6.33
2017-09-26T18:29:14.192Z,7.37
2017-09-26T18:31:41.716Z,6.07
2017-09-26T18:34:09.880Z,6.03
2017-09-26T18:36:37.407Z,7.50
2017-09-26T18:39:04.913Z,5.57
2017-09-26T18:41:32.442Z,6.60
2017-09-26T18:43:59.952Z,6.13
2017-09-26T18:46:27.504Z,6.70
2017-09-26T18:48:55.414Z,6.47
2017-09-26T18:51:22.931Z,8.37
2017-09-26T18:53:50.459Z,7.63
2017-09-26T18:56:18.367Z,6.97
2017-09-26T18:58:45.894Z,8.07
2017-09-26T19:01:13.400Z,6.43
2017-09-26T19:03:40.938Z,5.90
2017-09-26T19:06:08.456Z,8.50
2017-09-26T19:08:35.991Z,6.20
2017-09-26T19:11:03.570Z,8.07
2017-09-26T19:13:31.507Z,7.77
2017-09-26T19:15:59.023Z,8.77
2017-09-26T19:18:26.935Z,6.93
2017-09-26T19:20:54.852Z,7.13
2017-09-26T19:23:22.366Z,6.97
2017-09-26T19:25:49.897Z,7.20
2017-09-26T19:28:17.411Z,7.90
2017-09-26T19:30:44.940Z,7.37
2017-09-26T19:33:12.734Z,12.23
2017-09-26T19:35:41.455Z,7.50
2017-09-26T19:38:10.196Z,7.22
2017-09-26T19:40:38.265Z,12.53
2017-09-26T19:43:05.815Z,8.30
2017-09-26T19:45:33.530Z,8.60
2017-09-26T19:48:01.058Z,7.93
2017-09-26T19:50:28.580Z,8.80
2017-09-26T19:52:56.498Z,8.70
2017-09-26T19:55:24.153Z,9.23
2017-09-26T19:57:52.095Z,7.47
2017-09-26T20:00:19.607Z,8.93
2017-09-26T20:02:47.140Z,10.93
2017-09-26T20:05:14.960Z,9.87
2017-09-26T20:07:42.904Z,7.50
2017-09-26T20:10:11.584Z,8.53
2017-09-26T20:12:40.390Z,8.87
2017-09-26T20:15:07.913Z,8.53
2017-09-26T20:17:35.813Z,9.97
2017-09-26T20:20:03.851Z,8.63
2017-09-26T20:22:31.367Z,10.17
2017-09-26T20:24:58.897Z,9.97
2017-09-26T20:27:26.412Z,7.53
2017-09-26T20:29:54.330Z,8.37
2017-09-26T20:32:21.844Z,10.03
2017-09-26T20:34:49.390Z,8.73
2017-09-26T20:37:16.909Z,9.90
2017-09-26T20:39:44.424Z,8.53
2017-09-26T20:42:12.347Z,7.43
2017-09-26T20:44:40.427Z,11.40
2017-09-26T20:47:08.398Z,11.00
2017-09-26T20:49:35.930Z,10.05
2017-09-26T20:52:03.900Z,11.20
2017-09-26T20:54:31.407Z,9.90
2017-09-26T20:56:58.948Z,10.50
2017-09-26T20:59:26.447Z,8.87
2017-09-26T21:01:54.004Z,9.87
2017-09-26T21:04:21.923Z,14.03
2017-09-26T21:06:49.452Z,9.07
2017-09-26T21:09:16.995Z,13.20
2017-09-26T21:11:44.920Z,12.27
2017-09-26T21:14:12.772Z,12.57
2017-09-26T21:16:41.256Z,13.03
2017-09-26T21:19:08.791Z,13.30
2017-09-26T21:21:36.726Z,12.63
2017-09-26T21:24:04.298Z,13.00
2017-09-26T21:26:32.210Z,14.57
2017-09-26T21:28:59.737Z,13.10
2017-09-26T21:31:27.282Z,12.98
2017-09-26T21:33:54.813Z,13.10
2017-09-26T21:36:22.358Z,13.50
2017-09-26T21:38:49.871Z,13.37
2017-09-26T21:41:17.405Z,13.03
2017-09-26T21:43:44.923Z,12.20
2017-09-26T21:46:12.468Z,15.17
2017-09-26T21:48:41.419Z,14.17
2017-09-26T21:51:09.992Z,12.27
2017-09-26T21:53:37.511Z,12.82
2017-09-26T21:56:05.024Z,13.90
2017-09-26T21:58:33.099Z,11.33
2017-09-26T22:01:00.610Z,12.50
2017-09-26T22:03:28.158Z,13.30
2017-09-26T22:05:55.679Z,12.90
2017-09-26T22:08:23.264Z,13.02
2017-09-26T22:10:50.788Z,14.15
2017-09-26T22:13:18.361Z,11.80
2017-09-26T22:15:45.884Z,12.73
2017-09-26T22:18:13.438Z,13.33
2017-09-26T22:20:40.958Z,13.73
2017-09-26T22:23:10.135Z,13.40
2017-09-26T22:25:37.754Z,14.20
2017-09-26T22:28:05.287Z,12.35
2017-09-26T22:30:32.821Z,18.93
2017-09-26T22:33:00.728Z,20.37
2017-09-26T22:35:28.655Z,17.37
2017-09-26T22:37:56.170Z,13.00
2017-09-26T22:40:23.703Z,16.30
2017-09-26T22:42:51.228Z,17.70
2017-09-26T22:45:19.159Z,14.60
2017-09-26T22:47:46.688Z,15.20
2017-09-26T22:50:14.587Z,15.57
2017-09-26T22:52:42.132Z,17.10
2017-09-26T22:55:10.603Z,16.77
2017-09-26T22:57:38.142Z,13.70
2017-09-26T23:00:05.666Z,18.12
2017-09-26T23:02:33.223Z,18.20
2017-09-26T23:05:00.783Z,17.17
2017-09-26T23:07:28.323Z,17.20
2017-09-26T23:09:55.843Z,17.83
2017-09-26T23:12:23.404Z,18.67
2017-09-26T23:14:50.928Z,16.40
2017-09-26T23:17:18.451Z,18.77
2017-09-26T23:19:45.992Z,21.23
2017-09-26T23:22:13.516Z,17.50
2017-09-26T23:24:41.058Z,19.90
2017-09-26T23:27:09.385Z,18.60
2017-09-26T23:29:36.931Z,21.00
2017-09-26T23:32:04.446Z,27.20
2017-09-26T23:34:32.387Z,21.30
2017-09-26T23:36:59.900Z,18.90
2017-09-26T23:39:27.429Z,20.35
2017-09-26T23:41:54.963Z,23.63
2017-09-26T23:44:22.487Z,21.33
2017-09-26T23:46:50.016Z,20.27
2017-09-26T23:49:17.534Z,22.47
2017-09-26T23:51:45.076Z,22.25
2017-09-26T23:54:12.599Z,18.80
2017-09-26T23:56:41.584Z,21.13
2017-09-26T23:59:10.119Z,23.00
